Time;durP1;ratioP1;P1;durP2;ratioP2;P2;SDS_P1;SDS_P2;PMS_P1;PMS_P2;Temp;Humidity;BMP_temperature;BMP_pressure;BME280_temperature;BME280_humidity;BME280_pressure;Samples;Min_cycle;Max_cycle;Signal;HPM_P1;HPM_P2
2023/03/08 00:01:12;;;;;;;10.53;6.63;;;-0.10;99.90;;;;;;5029062;28;20379;-88
2023/03/08 00:03:39;;;;;;;8.00;6.00;;;-0.10;99.90;;;;;;5016727;28;20616;-86
2023/03/08 00:06:07;;;;;;;8.23;6.20;;;-0.10;99.90;;;;;;5014378;28;20395;-86
2023/03/08 00:08:33;;;;;;;9.37;5.93;;;-0.10;99.90;;;;;;5009103;28;20460;-82
2023/03/08 00:11:03;;;;;;;6.77;4.83;;;-0.20;99.90;;;;;;5014804;28;20044;-88
2023/03/08 00:13:29;;;;;;;8.00;5.20;;;-0.20;99.90;;;;;;5000152;28;20052;-86
2023/03/08 00:15:59;;;;;;;9.03;4.83;;;-0.30;99.90;;;;;;5028593;28;20278;-82
2023/03/08 00:18:25;;;;;;;8.30;5.50;;;-0.30;99.90;;;;;;5007153;28;20060;-91
2023/03/08 00:21:18;;;;;;;10.70;5.00;;;-0.30;99.90;;;;;;5027432;28;20045;-86
2023/03/08 00:23:45;;;;;;;9.70;6.22;;;-0.30;99.90;;;;;;5028267;28;20048;-89
2023/03/08 00:26:12;;;;;;;9.67;6.73;;;-0.30;99.90;;;;;;5012961;28;20044;-85
2023/03/08 00:28:38;;;;;;;12.67;8.50;;;-0.40;99.90;;;;;;5007699;28;20388;-87
2023/03/08 00:31:10;;;;;;;15.23;10.03;;;-0.30;99.90;;;;;;4997741;28;20044;-86
2023/03/08 00:33:37;;;;;;;25.53;15.37;;;-0.30;99.90;;;;;;5015563;28;20044;-86
2023/03/08 00:36:13;;;;;;;30.40;18.33;;;-0.20;99.90;;;;;;5016839;28;20240;-91
2023/03/08 00:38:40;;;;;;;25.23;16.67;;;-0.20;99.90;;;;;;5009668;28;20043;-86
2023/03/08 00:41:06;;;;;;;29.70;18.33;;;-0.20;99.90;;;;;;5014640;28;20874;-88
2023/03/08 00:43:33;;;;;;;36.40;23.33;;;-0.20;99.90;;;;;;5031914;28;20040;-86
2023/03/08 00:46:03;;;;;;;35.77;22.03;;;-0.20;99.90;;;;;;5030938;28;20040;-89
2023/03/08 00:48:30;;;;;;;37.80;21.87;;;-0.20;99.90;;;;;;5009948;28;20053;-86
2023/03/08 00:50:56;;;;;;;39.33;23.77;;;-0.20;99.90;;;;;;5030215;28;20025;-90
2023/03/08 00:53:23;;;;;;;38.27;23.73;;;-0.20;99.90;;;;;;5031891;28;20063;-87
2023/03/08 00:55:55;;;;;;;27.00;17.77;;;-0.20;99.90;;;;;;5013749;28;20036;-85
2023/03/08 00:58:23;;;;;;;38.53;24.50;;;-0.20;99.90;;;;;;5025571;28;20041;-90
2023/03/08 01:00:50;;;;;;;38.03;22.53;;;-0.20;99.90;;;;;;5029178;28;20399;-85
2023/03/08 01:03:17;;;;;;;39.87;25.17;;;-0.20;99.90;;;;;;5016303;28;20040;-83
2023/03/08 01:05:46;;;;;;;49.70;29.67;;;-0.20;99.90;;;;;;5000449;28;20041;-88
2023/03/08 01:08:13;;;;;;;42.70;25.63;;;-0.20;99.90;;;;;;4993365;28;20056;-86
2023/03/08 01:10:46;;;;;;;46.20;26.40;;;-0.20;99.90;;;;;;5017361;28;20904;-82
2023/03/08 01:13:12;;;;;;;39.85;23.17;;;-0.20;99.90;;;;;;5037790;28;20045;-86
2023/03/08 01:15:39;;;;;;;48.83;29.10;;;-0.20;99.90;;;;;;5023275;28;20053;-89
2023/03/08 01:18:05;;;;;;;42.87;25.40;;;-0.20;99.90;;;;;;5032803;28;20036;-87
2023/03/08 01:20:32;;;;;;;44.70;28.70;;;-0.10;99.90;;;;;;5020525;28;20048;-82
2023/03/08 01:22:59;;;;;;;53.07;31.30;;;-0.10;99.90;;;;;;5006627;28;20053;-87
2023/03/08 01:25:26;;;;;;;50.97;31.53;;;-0.10;99.90;;;;;;5004049;28;20747;-88
2023/03/08 01:27:53;;;;;;;47.67;28.17;;;-0.10;99.90;;;;;;5032945;28;20063;-82
2023/03/08 01:30:20;;;;;;;48.33;28.60;;;-0.10;99.90;;;;;;5034954;28;20040;-84
2023/03/08 01:32:46;;;;;;;38.00;24.40;;;-0.10;99.90;;;;;;5019111;28;20511;-86
2023/03/08 01:35:12;;;;;;;39.40;25.57;;;-0.10;99.90;;;;;;5033753;28;20048;-88
2023/03/08 01:37:39;;;;;;;37.47;24.17;;;-0.20;99.90;;;;;;5015168;28;20052;-82
2023/03/08 01:40:06;;;;;;;36.57;23.07;;;-0.20;99.90;;;;;;4999212;28;20037;-87
2023/03/08 01:42:33;;;;;;;37.37;23.93;;;-0.20;99.90;;;;;;5033225;28;20028;-93
2023/03/08 01:45:24;;;;;;;32.33;21.07;;;-0.30;99.90;;;;;;5034649;28;20029;-87
2023/03/08 01:47:50;;;;;;;32.50;20.83;;;-0.30;99.90;;;;;;5012491;28;21030;-87
2023/03/08 01:50:24;;;;;;;29.40;20.63;;;-0.30;99.90;;;;;;5014325;28;20037;-84
2023/03/08 01:52:54;;;;;;;38.03;24.13;;;-0.30;99.90;;;;;;5016145;28;20440;-86
2023/03/08 01:55:20;;;;;;;42.10;26.37;;;-0.20;99.90;;;;;;5002607;28;20037;-86
2023/03/08 01:57:52;;;;;;;46.27;28.43;;;-0.20;99.90;;;;;;5014375;28;20040;-89
2023/03/08 02:00:24;;;;;;;50.53;29.30;;;-0.10;99.90;;;;;;5015526;28;20372;-90
2023/03/08 02:03:04;;;;;;;44.00;26.30;;;-0.10;99.90;;;;;;5002360;28;20037;-90
2023/03/08 02:05:31;;;;;;;48.53;28.43;;;0.00;99.90;;;;;;5017842;28;20052;-90
2023/03/08 02:08:06;;;;;;;59.37;31.80;;;0.10;99.90;;;;;;5031012;28;20060;-82
2023/03/08 02:10:36;;;;;;;52.07;29.27;;;0.10;99.90;;;;;;5016494;28;20499;-87
2023/03/08 02:13:06;;;;;;;62.03;32.50;;;0.20;99.90;;;;;;5035978;28;20032;-89
2023/03/08 02:15:33;;;;;;;67.60;34.83;;;0.30;99.90;;;;;;5035249;28;20390;-81
2023/03/08 02:18:00;;;;;;;64.50;35.43;;;0.30;99.90;;;;;;5013625;28;20040;-86
2023/03/08 02:20:37;;;;;;;79.73;41.93;;;0.40;99.90;;;;;;5034479;28;20041;-88
2023/03/08 02:23:15;;;;;;;65.57;34.70;;;0.40;99.90;;;;;;5002919;28;20032;-81
2023/03/08 02:25:52;;;;;;;61.67;33.47;;;0.50;99.90;;;;;;5016160;28;20069;-83
2023/03/08 02:28:20;;;;;;;57.13;32.33;;;0.50;99.90;;;;;;5028605;28;20056;-89
2023/03/08 02:30:47;;;;;;;65.83;34.63;;;0.50;99.90;;;;;;5033578;28;20371;-86
2023/03/08 02:33:15;;;;;;;82.57;40.03;;;0.50;99.90;;;;;;5033973;28;20021;-90
2023/03/08 02:35:43;;;;;;;71.23;36.23;;;0.60;99.90;;;;;;5018001;28;20041;-91
2023/03/08 02:38:13;;;;;;;71.13;36.60;;;0.60;99.90;;;;;;5012340;28;20384;-85
2023/03/08 02:40:40;;;;;;;72.73;37.17;;;0.70;99.90;;;;;;5001796;28;20036;-90
2023/03/08 02:43:07;;;;;;;69.67;36.13;;;0.70;99.90;;;;;;5032114;28;20043;-87
2023/03/08 02:45:34;;;;;;;61.57;34.10;;;0.70;99.90;;;;;;5016952;28;20379;-89
2023/03/08 02:48:03;;;;;;;67.90;36.20;;;0.70;99.90;;;;;;5027847;28;20037;-86
2023/03/08 02:50:30;;;;;;;64.77;35.00;;;0.70;99.90;;;;;;4999648;28;20039;-84
2023/03/08 02:52:57;;;;;;;72.10;35.33;;;0.70;99.90;;;;;;5000605;28;20048;-85
2023/03/08 02:55:25;;;;;;;76.53;39.20;;;0.80;99.90;;;;;;5013557;28;20403;-85
2023/03/08 02:57:52;;;;;;;62.23;32.00;;;0.80;99.90;;;;;;5026966;28;20032;-84
2023/03/08 03:00:20;;;;;;;66.97;33.53;;;0.80;99.90;;;;;;5013727;28;20042;-89
2023/03/08 03:02:47;;;;;;;60.17;33.00;;;0.80;99.90;;;;;;5033701;28;20033;-90
2023/03/08 03:05:13;;;;;;;65.23;34.20;;;0.80;99.90;;;;;;5015298;28;20037;-88
2023/03/08 03:07:42;;;;;;;76.63;38.83;;;0.80;99.90;;;;;;5029456;28;20052;-88
2023/03/08 03:10:15;;;;;;;68.13;33.70;;;0.80;99.90;;;;;;5015008;28;20036;-89
2023/03/08 03:12:42;;;;;;;61.47;33.50;;;0.80;99.90;;;;;;5032446;28;20537;-85
2023/03/08 03:15:12;;;;;;;72.23;36.77;;;0.90;99.90;;;;;;5035878;28;20049;-90
2023/03/08 03:17:40;;;;;;;90.63;43.47;;;0.90;99.90;;;;;;5037053;28;20048;-89
2023/03/08 03:20:08;;;;;;;80.50;40.30;;;0.90;99.90;;;;;;5034665;28;20029;-90
2023/03/08 03:22:35;;;;;;;77.83;38.60;;;0.90;99.90;;;;;;5018365;28;20020;-87
2023/03/08 03:25:02;;;;;;;78.87;39.00;;;0.90;99.90;;;;;;5016658;28;20056;-91
2023/03/08 03:27:30;;;;;;;77.63;39.63;;;0.90;99.90;;;;;;5017827;28;20059;-88
2023/03/08 03:29:56;;;;;;;77.27;39.03;;;0.90;99.90;;;;;;4996309;28;20468;-86
2023/03/08 03:32:23;;;;;;;78.10;36.53;;;0.90;99.90;;;;;;5000533;28;20044;-87
2023/03/08 03:34:49;;;;;;;88.50;40.83;;;0.90;99.90;;;;;;5002978;28;20044;-87
2023/03/08 03:37:18;;;;;;;72.23;37.83;;;0.90;99.90;;;;;;5031353;28;20044;-89
2023/03/08 03:39:45;;;;;;;87.53;42.03;;;0.90;99.90;;;;;;5008916;28;20029;-89
2023/03/08 03:42:14;;;;;;;91.17;41.30;;;1.00;99.90;;;;;;5031072;28;20426;-88
2023/03/08 03:44:48;;;;;;;94.30;40.80;;;1.00;99.90;;;;;;5001261;28;20066;-87
2023/03/08 03:47:18;;;;;;;104.57;40.73;;;1.00;99.90;;;;;;5015280;28;20557;-86
2023/03/08 03:49:46;;;;;;;89.67;39.43;;;1.00;99.90;;;;;;5029647;28;20376;-90
2023/03/08 03:52:15;;;;;;;111.30;43.93;;;1.00;99.90;;;;;;5014469;28;20040;-91
2023/03/08 03:54:49;;;;;;;89.83;37.47;;;0.90;99.90;;;;;;5016397;28;20624;-82
2023/03/08 03:57:16;;;;;;;106.23;41.27;;;1.00;99.90;;;;;;5015344;28;22310;-83
2023/03/08 03:59:43;;;;;;;134.10;45.27;;;1.00;99.90;;;;;;5028372;28;20484;-91
2023/03/08 04:02:10;;;;;;;94.70;38.23;;;1.00;99.90;;;;;;5017484;28;20483;-81
2023/03/08 04:04:42;;;;;;;118.88;39.60;;;1.00;99.90;;;;;;5014922;28;20035;-89
2023/03/08 04:07:12;;;;;;;145.70;44.23;;;1.00;99.90;;;;;;5015776;28;20037;-90
2023/03/08 04:09:43;;;;;;;163.63;51.97;;;0.90;99.90;;;;;;4994468;28;20475;-84
2023/03/08 04:12:14;;;;;;;219.27;57.20;;;1.00;99.90;;;;;;5032877;28;20491;-86
2023/03/08 04:14:41;;;;;;;161.90;57.17;;;1.00;99.90;;;;;;4994717;28;20403;-85
2023/03/08 04:17:09;;;;;;;154.03;52.63;;;1.00;99.90;;;;;;5017162;28;20031;-92
2023/03/08 04:19:43;;;;;;;129.03;50.03;;;1.00;99.90;;;;;;5012366;28;20040;-87
2023/03/08 04:22:11;;;;;;;125.37;49.63;;;1.00;99.90;;;;;;4996953;28;20048;-90
2023/03/08 04:24:44;;;;;;;;;;;1.00;99.90;;;;;;4999611;28;20029;-88
2023/03/08 04:27:16;;;;;;;148.40;48.63;;;1.00;99.90;;;;;;5029043;28;19932;-92
2023/03/08 04:29:42;;;;;;;137.97;48.23;;;1.00;99.90;;;;;;5008177;28;20037;-84
2023/03/08 04:32:09;;;;;;;133.90;44.97;;;1.00;99.90;;;;;;5014264;28;20037;-84
2023/03/08 04:34:43;;;;;;;134.57;43.33;;;1.00;99.90;;;;;;5015642;28;20410;-90
2023/03/08 04:37:13;;;;;;;171.80;50.07;;;0.90;99.90;;;;;;5031992;28;20099;-88
2023/03/08 04:39:40;;;;;;;178.10;52.30;;;1.00;99.90;;;;;;5006899;28;20045;-86
2023/03/08 04:42:09;;;;;;;160.13;49.47;;;0.90;99.90;;;;;;5015782;28;20453;-87
2023/03/08 04:44:35;;;;;;;140.33;48.73;;;1.00;99.90;;;;;;4999293;28;20036;-88
2023/03/08 04:47:04;;;;;;;124.37;46.07;;;1.00;99.90;;;;;;5014349;28;20719;-85
2023/03/08 04:49:37;;;;;;;159.07;50.37;;;1.00;99.90;;;;;;5028121;28;20613;-90
2023/03/08 04:52:04;;;;;;;171.53;46.83;;;1.00;99.90;;;;;;5019435;28;20502;-83
2023/03/08 04:54:33;;;;;;;189.50;52.40;;;1.00;99.90;;;;;;5021159;28;20041;-84
2023/03/08 04:57:04;;;;;;;130.57;46.87;;;1.00;99.90;;;;;;5001218;28;20040;-89
2023/03/08 04:59:32;;;;;;;113.43;38.37;;;1.00;99.90;;;;;;5028440;28;20036;-85
2023/03/08 05:02:02;;;;;;;149.27;51.30;;;1.00;99.90;;;;;;5035465;28;20878;-87
2023/03/08 05:04:30;;;;;;;145.73;48.13;;;1.00;99.90;;;;;;5018153;28;20045;-85
2023/03/08 05:06:56;;;;;;;126.87;43.90;;;1.00;99.90;;;;;;5003760;28;20037;-90
2023/03/08 05:09:26;;;;;;;152.23;51.77;;;1.00;99.90;;;;;;5012083;28;20047;-92
2023/03/08 05:11:53;;;;;;;258.90;59.67;;;1.00;99.90;;;;;;5034427;28;20036;-87
2023/03/08 05:14:21;;;;;;;159.63;52.17;;;1.00;99.90;;;;;;5032265;28;20140;-90
2023/03/08 05:16:48;;;;;;;301.73;59.83;;;1.00;99.90;;;;;;5028049;28;20716;-83
2023/03/08 05:19:15;;;;;;;155.17;51.43;;;1.00;99.90;;;;;;5019527;28;20044;-85
2023/03/08 05:21:47;;;;;;;141.65;48.05;;;1.00;99.90;;;;;;5009821;28;20036;-87
2023/03/08 05:24:14;;;;;;;146.13;47.23;;;1.00;99.90;;;;;;5040315;28;20036;-89
2023/03/08 05:26:40;;;;;;;211.50;59.40;;;0.90;99.90;;;;;;5042086;28;20033;-86
2023/03/08 05:29:08;;;;;;;154.73;52.60;;;0.90;99.90;;;;;;5001117;28;20036;-89
2023/03/08 05:31:37;;;;;;;179.17;54.47;;;0.90;99.90;;;;;;5008005;28;20051;-89
2023/03/08 05:34:08;;;;;;;158.40;50.40;;;0.90;99.90;;;;;;5034973;28;20033;-84
2023/03/08 05:36:36;;;;;;;165.90;52.23;;;0.90;99.90;;;;;;5004380;28;20037;-87
2023/03/08 05:39:05;;;;;;;322.37;70.17;;;0.90;99.90;;;;;;5016745;28;20040;-92
2023/03/08 05:41:58;;;;;;;335.42;71.07;;;0.90;99.90;;;;;;5038064;28;20044;-89
2023/03/08 05:44:29;;;;;;;219.90;57.87;;;0.90;99.90;;;;;;5004533;28;20075;-88
2023/03/08 05:46:58;;;;;;;199.10;57.50;;;0.80;99.90;;;;;;5035066;28;20063;-88
2023/03/08 05:49:25;;;;;;;259.47;55.33;;;0.80;99.90;;;;;;5013917;28;20045;-85
2023/03/08 05:51:53;;;;;;;224.37;58.37;;;0.80;99.90;;;;;;5037129;28;20625;-89
2023/03/08 05:54:20;;;;;;;263.57;60.03;;;0.90;99.90;;;;;;5035979;28;20442;-90
2023/03/08 05:56:49;;;;;;;198.90;56.77;;;0.90;99.90;;;;;;5035239;28;20037;-86
2023/03/08 05:59:24;;;;;;;228.67;57.67;;;0.90;99.90;;;;;;5030995;28;20775;-84
2023/03/08 06:01:50;;;;;;;175.07;56.83;;;0.80;99.90;;;;;;5004057;28;20043;-85
2023/03/08 06:04:36;;;;;;;241.23;59.57;;;0.80;99.90;;;;;;5018161;28;20435;-85
2023/03/08 06:07:03;;;;;;;160.67;48.87;;;0.80;99.90;;;;;;5036342;28;20499;-87
2023/03/08 06:09:35;;;;;;;215.02;65.55;;;0.80;99.90;;;;;;4999243;28;20471;-89
2023/03/08 06:12:02;;;;;;;305.30;64.83;;;0.80;99.90;;;;;;5033167;28;20040;-88
2023/03/08 06:14:29;;;;;;;170.23;53.83;;;0.80;99.90;;;;;;4998450;28;20041;-88
2023/03/08 06:16:56;;;;;;;190.77;56.53;;;0.80;99.90;;;;;;4998690;28;20044;-90
2023/03/08 06:19:25;;;;;;;225.83;60.67;;;0.80;99.90;;;;;;5011990;28;20041;-86
2023/03/08 06:21:54;;;;;;;313.63;68.87;;;0.80;99.90;;;;;;5019040;28;20037;-90
2023/03/08 06:24:21;;;;;;;228.53;61.87;;;0.80;99.90;;;;;;4997996;28;20049;-85
2023/03/08 06:26:48;;;;;;;191.67;57.43;;;0.80;99.90;;;;;;5016593;28;20035;-87
2023/03/08 06:29:16;;;;;;;192.63;53.83;;;0.80;99.90;;;;;;5027861;28;20041;-84
2023/03/08 06:31:42;;;;;;;162.80;53.10;;;0.80;99.90;;;;;;5017210;28;20040;-86
2023/03/08 06:34:11;;;;;;;225.87;62.80;;;0.80;99.90;;;;;;5019669;28;20041;-85
2023/03/08 06:36:38;;;;;;;210.57;61.43;;;0.80;99.90;;;;;;5036067;28;20688;-86
2023/03/08 06:39:05;;;;;;;158.67;53.60;;;0.80;99.90;;;;;;5033569;28;20040;-85
2023/03/08 06:41:32;;;;;;;182.20;53.43;;;0.80;99.90;;;;;;5016630;28;20416;-86
2023/03/08 06:44:00;;;;;;;202.13;57.27;;;0.90;99.90;;;;;;5033990;28;20029;-85
2023/03/08 06:46:27;;;;;;;175.33;56.37;;;0.80;99.90;;;;;;5018010;28;20494;-89
2023/03/08 06:48:54;;;;;;;165.63;53.80;;;0.80;99.90;;;;;;5028344;28;20044;-84
2023/03/08 06:51:21;;;;;;;156.17;49.50;;;0.80;99.90;;;;;;5016592;28;20043;-84
2023/03/08 06:53:49;;;;;;;170.50;52.23;;;0.70;99.90;;;;;;5013712;28;20037;-82
2023/03/08 06:56:19;;;;;;;137.93;51.37;;;0.70;99.90;;;;;;5013727;28;20144;-86
2023/03/08 06:58:45;;;;;;;128.90;46.07;;;0.70;99.90;;;;;;5025910;28;20041;-83
2023/03/08 07:01:12;;;;;;;158.63;48.33;;;0.70;99.90;;;;;;5034767;28;20392;-88
2023/03/08 07:03:39;;;;;;;173.20;47.87;;;0.70;99.90;;;;;;5016031;28;20476;-87
2023/03/08 07:06:08;;;;;;;173.13;49.83;;;0.80;99.90;;;;;;5015211;28;20033;-85
2023/03/08 07:08:35;;;;;;;143.70;48.57;;;0.80;99.90;;;;;;5009411;28;20398;-84
2023/03/08 07:11:02;;;;;;;364.00;64.07;;;0.80;99.90;;;;;;5015347;28;20043;-87
2023/03/08 07:13:28;;;;;;;169.47;50.63;;;0.90;99.90;;;;;;5014026;28;20032;-82
2023/03/08 07:15:55;;;;;;;278.90;56.23;;;0.90;99.90;;;;;;5014872;28;20044;-86
2023/03/08 07:18:22;;;;;;;188.33;53.60;;;0.90;99.90;;;;;;5027233;28;20404;-87
2023/03/08 07:20:55;;;;;;;159.30;49.17;;;0.90;99.90;;;;;;4999637;28;20460;-87
2023/03/08 07:23:22;;;;;;;157.87;46.47;;;0.90;99.90;;;;;;5017361;28;20041;-84
2023/03/08 07:25:48;;;;;;;200.47;46.33;;;0.90;99.90;;;;;;5004572;28;21555;-81
2023/03/08 07:28:15;;;;;;;196.40;55.67;;;1.00;99.90;;;;;;5031428;28;20055;-85
2023/03/08 07:30:49;;;;;;;167.10;52.70;;;1.00;99.90;;;;;;5017490;28;20052;-83
2023/03/08 07:33:17;;;;;;;234.10;61.23;;;1.00;99.90;;;;;;5032478;28;20389;-82
2023/03/08 07:35:44;;;;;;;231.13;58.23;;;1.00;99.90;;;;;;5032397;28;20036;-89
2023/03/08 07:38:11;;;;;;;155.90;49.10;;;1.10;99.90;;;;;;5010041;28;20056;-81
2023/03/08 07:40:37;;;;;;;145.90;49.07;;;1.10;99.90;;;;;;5029366;28;20044;-83
2023/03/08 07:43:05;;;;;;;214.07;60.37;;;1.10;99.90;;;;;;5030908;28;20433;-86
2023/03/08 07:46:00;;;;;;;152.00;49.47;;;1.10;99.90;;;;;;5030327;28;20041;-89
2023/03/08 07:48:34;;;;;;;211.87;58.50;;;1.10;99.90;;;;;;5008305;28;20052;-87
2023/03/08 07:51:09;;;;;;;170.50;55.47;;;1.20;99.90;;;;;;5015678;28;20033;-86
2023/03/08 07:53:40;;;;;;;221.20;60.30;;;1.20;99.90;;;;;;5030364;28;20032;-88
2023/03/08 07:56:07;;;;;;;203.97;54.60;;;1.20;99.90;;;;;;5013049;28;20042;-83
2023/03/08 07:58:36;;;;;;;204.20;59.47;;;1.20;99.90;;;;;;5007345;28;20041;-81
2023/03/08 08:01:13;;;;;;;156.97;49.97;;;1.20;99.90;;;;;;5013901;28;20043;-79
2023/03/08 08:03:39;;;;;;;205.87;58.43;;;1.20;99.90;;;;;;4998002;28;20761;-80
2023/03/08 08:06:06;;;;;;;199.90;63.53;;;1.30;99.90;;;;;;5011838;28;20972;-82
2023/03/08 08:08:32;;;;;;;171.73;55.20;;;1.30;99.90;;;;;;5022121;28;20040;-82
2023/03/08 08:10:59;;;;;;;154.93;53.97;;;1.30;99.90;;;;;;5011487;28;20060;-83
2023/03/08 08:13:25;;;;;;;166.27;52.97;;;1.30;99.90;;;;;;5028973;28;20037;-83
2023/03/08 08:16:01;;;;;;;194.53;57.77;;;1.30;99.90;;;;;;5028166;28;20049;-80
2023/03/08 08:18:28;;;;;;;171.17;56.73;;;1.40;99.90;;;;;;4995757;28;20060;-81
2023/03/08 08:21:02;;;;;;;163.00;52.83;;;1.40;99.90;;;;;;5012150;28;20036;-82
2023/03/08 08:23:29;;;;;;;190.87;61.40;;;1.50;99.90;;;;;;5017110;28;20028;-82
2023/03/08 08:25:56;;;;;;;192.60;59.77;;;1.50;99.90;;;;;;5029055;28;20056;-79
2023/03/08 08:28:24;;;;;;;181.67;57.40;;;1.60;99.90;;;;;;5024653;28;20048;-81
2023/03/08 08:31:02;;;;;;;182.43;58.37;;;1.60;99.90;;;;;;5028798;28;20036;-81
2023/03/08 08:33:30;;;;;;;180.10;55.60;;;1.60;99.90;;;;;;4998060;28;20051;-81
2023/03/08 08:35:57;;;;;;;205.60;66.00;;;1.70;99.90;;;;;;5030612;28;20037;-82
2023/03/08 08:38:24;;;;;;;187.57;60.00;;;1.70;99.90;;;;;;5022104;28;20041;-83
2023/03/08 08:40:50;;;;;;;172.40;57.30;;;1.70;99.90;;;;;;5011728;28;20575;-80
2023/03/08 08:43:17;;;;;;;161.80;51.80;;;1.80;99.90;;;;;;5026117;28;20040;-79
2023/03/08 08:45:47;;;;;;;165.33;54.07;;;1.90;99.90;;;;;;5011897;28;20044;-82
2023/03/08 08:48:13;;;;;;;154.33;51.17;;;2.00;99.90;;;;;;5022003;28;20037;-77
2023/03/08 08:50:41;;;;;;;152.00;53.50;;;2.10;99.90;;;;;;5026994;28;20038;-80
2023/03/08 08:53:09;;;;;;;156.30;56.70;;;2.10;99.90;;;;;;5010674;28;20388;-83
2023/03/08 08:55:35;;;;;;;147.83;54.47;;;2.10;99.90;;;;;;5011958;28;20040;-82
2023/03/08 08:58:03;;;;;;;142.07;52.00;;;2.20;99.90;;;;;;5003515;28;20033;-83
2023/03/08 09:00:31;;;;;;;126.20;48.80;;;2.20;99.90;;;;;;5009645;28;20392;-81
2023/03/08 09:02:57;;;;;;;123.77;46.87;;;2.20;99.90;;;;;;5010110;28;20048;-83
2023/03/08 09:05:23;;;;;;;113.60;42.03;;;2.20;99.90;;;;;;5010616;28;20044;-81
2023/03/08 09:07:53;;;;;;;105.40;40.37;;;2.20;99.90;;;;;;5025225;28;20052;-82
2023/03/08 09:10:20;;;;;;;97.80;41.87;;;2.30;99.90;;;;;;5008128;28;20064;-80
2023/03/08 09:12:46;;;;;;;86.30;36.77;;;2.40;99.90;;;;;;5024243;28;20048;-81
2023/03/08 09:15:13;;;;;;;75.97;32.60;;;2.40;99.90;;;;;;5010645;28;20053;-82
2023/03/08 09:17:39;;;;;;;74.00;30.83;;;2.40;99.90;;;;;;5009730;28;20349;-80
2023/03/08 09:20:10;;;;;;;73.27;29.57;;;2.40;99.90;;;;;;4992055;28;20051;-82
2023/03/08 09:22:38;;;;;;;67.73;29.30;;;2.40;99.90;;;;;;5013877;28;20076;-81
2023/03/08 09:25:06;;;;;;;61.20;29.33;;;2.50;99.90;;;;;;5045218;28;20408;-81
2023/03/08 09:27:33;;;;;;;65.57;29.53;;;2.50;99.90;;;;;;5029487;28;20048;-80
2023/03/08 09:30:00;;;;;;;60.00;29.23;;;2.60;99.90;;;;;;5029841;28;20060;-84
2023/03/08 09:32:26;;;;;;;58.13;28.47;;;2.60;99.90;;;;;;5017440;28;20458;-88
2023/03/08 09:34:53;;;;;;;59.63;29.03;;;2.50;99.90;;;;;;5033911;28;20017;-78
2023/03/08 09:37:20;;;;;;;59.40;28.47;;;2.50;99.90;;;;;;5003810;28;20052;-87
2023/03/08 09:39:49;;;;;;;57.90;30.00;;;2.50;99.90;;;;;;5015324;28;20032;-90
2023/03/08 09:42:30;;;;;;;53.93;26.77;;;2.60;99.90;;;;;;5015403;28;20037;-86
2023/03/08 09:45:16;;;;;;;62.93;30.03;;;2.60;99.90;;;;;;5030885;28;20044;-88
2023/03/08 09:47:51;;;;;;;64.00;29.80;;;2.60;99.90;;;;;;5029427;28;20043;-84
2023/03/08 09:50:27;;;;;;;55.23;29.80;;;2.70;99.90;;;;;;5014037;28;20048;-78
2023/03/08 09:53:18;;;;;;;57.13;29.10;;;2.70;99.90;;;;;;5032212;28;20041;-85
2023/03/08 09:55:50;;;;;;;57.30;31.80;;;2.80;99.90;;;;;;5030221;28;20416;-79
2023/03/08 09:59:01;;;;;;;60.53;32.30;;;2.80;99.90;;;;;;5029114;28;20051;-83
2023/03/08 10:01:42;;;;;;;56.30;31.70;;;2.90;99.90;;;;;;5013735;28;20328;-80
2023/03/08 10:04:30;;;;;;;60.43;33.10;;;3.00;99.90;;;;;;5017189;28;20036;-84
2023/03/08 10:07:30;;;;;;;53.63;31.03;;;2.90;99.90;;;;;;5032661;28;20403;-80
2023/03/08 10:10:12;;;;;;;49.97;28.55;;;3.00;99.90;;;;;;5015609;28;20045;-77
2023/03/08 10:12:53;;;;;;;51.03;27.47;;;3.10;99.90;;;;;;5018318;28;20037;-79
2023/03/08 10:15:23;;;;;;;47.93;26.53;;;3.10;99.90;;;;;;5033645;28;20061;-81
2023/03/08 10:17:55;;;;;;;50.03;25.73;;;3.20;99.90;;;;;;5031663;28;20025;-80
2023/03/08 10:20:34;;;;;;;61.92;33.33;;;3.30;99.90;;;;;;5002499;28;20040;-83
2023/03/08 10:23:14;;;;;;;69.60;36.17;;;3.30;99.90;;;;;;5013177;28;20045;-83
2023/03/08 10:25:41;;;;;;;66.07;34.42;;;3.20;99.90;;;;;;5016665;28;20029;-80
2023/03/08 10:28:17;;;;;;;73.87;38.90;;;3.30;99.90;;;;;;4994548;28;20037;-83
2023/03/08 10:30:53;;;;;;;73.33;37.90;;;3.30;99.90;;;;;;4999744;28;20571;-82
2023/03/08 10:33:23;;;;;;;73.13;37.70;;;3.40;99.90;;;;;;5032580;28;20041;-84
2023/03/08 10:35:52;;;;;;;80.40;41.13;;;3.30;99.90;;;;;;5015210;28;20041;-81
2023/03/08 10:38:19;;;;;;;78.57;38.13;;;3.40;99.90;;;;;;5026870;28;20036;-82
2023/03/08 10:40:45;;;;;;;76.25;39.90;;;3.50;99.90;;;;;;5031727;28;20040;-84
2023/03/08 10:43:31;;;;;;;71.87;37.70;;;3.70;99.90;;;;;;5032397;28;20044;-81
2023/03/08 10:46:13;;;;;;;77.77;40.73;;;3.90;99.90;;;;;;5000051;28;20029;-81
2023/03/08 10:48:40;;;;;;;75.25;37.28;;;4.00;99.90;;;;;;5011817;28;20044;-81
2023/03/08 10:51:22;;;;;;;56.85;34.65;;;4.00;99.90;;;;;;5032374;28;20049;-82
2023/03/08 10:53:57;;;;;;;59.45;33.78;;;3.90;99.90;;;;;;4990659;28;20035;-87
2023/03/08 10:56:37;;;;;;;62.08;33.45;;;3.80;99.90;;;;;;5014999;28;20404;-83
2023/03/08 10:59:15;;;;;;;62.80;34.47;;;3.70;99.90;;;;;;5012425;28;20798;-87
2023/03/08 11:01:51;;;;;;;67.78;36.10;;;3.80;99.90;;;;;;5029547;28;21747;-79
2023/03/08 11:04:19;;;;;;;70.70;35.10;;;3.70;99.90;;;;;;5013892;28;20392;-80
2023/03/08 11:06:46;;;;;;;71.65;38.67;;;3.70;99.90;;;;;;5028061;28;20488;-82
2023/03/08 11:09:28;;;;;;;67.70;35.53;;;3.70;99.90;;;;;;5024719;28;20041;-82
2023/03/08 11:11:56;;;;;;;63.47;33.22;;;3.80;99.90;;;;;;5026040;28;20056;-82
2023/03/08 11:14:24;;;;;;;58.47;31.37;;;3.90;99.90;;;;;;5023821;28;20480;-82
2023/03/08 11:17:13;;;;;;;46.85;26.42;;;4.00;99.90;;;;;;5013807;28;20163;-80
2023/03/08 11:19:59;;;;;;;48.33;26.17;;;4.10;99.90;;;;;;5024615;28;20033;-84
2023/03/08 11:22:42;;;;;;;45.15;24.85;;;4.40;99.90;;;;;;5030780;28;20037;-83
2023/03/08 11:25:08;;;;;;;35.17;20.10;;;4.50;99.90;;;;;;5030915;28;20043;-79
2023/03/08 11:27:56;;;;;;;36.30;20.65;;;4.50;99.90;;;;;;5026689;28;20032;-80
2023/03/08 11:30:40;;;;;;;33.25;19.52;;;4.40;99.90;;;;;;5011800;28;20049;-83
2023/03/08 11:33:40;;;;;;;36.40;17.38;;;4.40;99.90;;;;;;5032493;28;20028;-80
2023/03/08 11:36:37;;;;;;;27.27;17.33;;;4.40;99.90;;;;;;5001871;28;20036;-83
2023/03/08 11:39:22;;;;;;;32.90;19.02;;;4.30;99.90;;;;;;5045774;28;20032;-82
2023/03/08 11:42:05;;;;;;;30.15;18.42;;;4.40;99.90;;;;;;4999862;28;20503;-85
2023/03/08 11:45:08;;;;;;;31.40;18.98;;;4.30;99.90;;;;;;5026235;28;20037;-86
2023/03/08 11:47:47;;;;;;;31.83;19.05;;;4.30;99.90;;;;;;5027693;28;20040;-80
2023/03/08 11:50:40;;;;;;;33.03;19.77;;;4.30;99.90;;;;;;4997860;28;20068;-83
2023/03/08 11:53:17;;;;;;;30.50;19.10;;;4.30;99.90;;;;;;4998429;28;20044;-82
2023/03/08 11:56:12;;;;;;;31.98;19.73;;;4.40;99.90;;;;;;5032794;28;20044;-83
2023/03/08 11:58:49;;;;;;;34.40;20.87;;;4.40;99.90;;;;;;4993146;28;20502;-82
2023/03/08 12:01:31;;;;;;;33.38;20.33;;;4.30;99.90;;;;;;5013118;28;20044;-86
2023/03/08 12:04:12;;;;;;;32.23;20.17;;;4.20;99.90;;;;;;5014399;28;20041;-86
2023/03/08 12:06:44;;;;;;;33.97;21.70;;;4.20;99.90;;;;;;4999711;28;20067;-87
2023/03/08 12:09:11;;;;;;;32.92;20.30;;;4.20;99.90;;;;;;5008976;28;20045;-84
2023/03/08 12:12:00;;;;;;;33.80;20.60;;;4.20;99.90;;;;;;4996035;28;20045;-82
2023/03/08 12:14:33;;;;;;;35.40;20.13;;;4.10;99.90;;;;;;5030982;28;20039;-80
2023/03/08 12:17:12;;;;;;;30.40;20.30;;;4.10;99.90;;;;;;4998484;28;20037;-85
2023/03/08 12:19:46;;;;;;;30.07;19.70;;;4.00;99.90;;;;;;5023848;28;20033;-85
2023/03/08 12:22:22;;;;;;;29.70;20.80;;;4.00;99.90;;;;;;4996707;28;20063;-84
2023/03/08 12:25:15;;;;;;;30.85;20.30;;;4.00;99.90;;;;;;5029990;28;20048;-80
2023/03/08 12:28:16;;;;;;;27.85;19.48;;;4.10;99.90;;;;;;4996508;28;20029;-81
2023/03/08 12:30:57;;;;;;;28.98;19.98;;;4.10;99.90;;;;;;5010730;28;20812;-81
2023/03/08 12:33:25;;;;;;;25.23;18.17;;;4.10;99.90;;;;;;5012608;28;20041;-81
2023/03/08 12:35:56;;;;;;;25.30;17.52;;;4.20;99.90;;;;;;4997043;28;20361;-82
2023/03/08 12:38:22;;;;;;;26.33;17.35;;;4.10;99.90;;;;;;5007399;28;21155;-85
2023/03/08 12:40:51;;;;;;;24.55;16.17;;;4.10;99.90;;;;;;5031293;28;21190;-83
2023/03/08 12:43:20;;;;;;;26.33;17.67;;;4.10;99.90;;;;;;5031856;28;20519;-83
2023/03/08 12:45:59;;;;;;;25.63;16.43;;;4.10;99.90;;;;;;5013768;28;20064;-81
2023/03/08 12:48:28;;;;;;;24.92;16.23;;;4.10;99.90;;;;;;4992209;28;20582;-83
2023/03/08 12:51:04;;;;;;;24.77;15.45;;;4.20;99.90;;;;;;4998475;28;20049;-82
2023/03/08 12:53:49;;;;;;;24.13;15.20;;;4.30;99.90;;;;;;4995978;28;20404;-82